Terminal Aerodrome Forecast
Issued by NWS

Home | Current Version | Previous Version | Text Only | Print | Product List | Glossary On
Versions: 1 2 3 4 5 6 7 8 9 10 11 12 13 14 15 16 17 18 19 20 21 22 23 24 25 26 27 28
000
FTUS46 KSEW 200500
TAFSEA
TAF
KSEA 200520Z 2006/2112 01006KT P6SM SCT040
      TEMPO 2011/2015 4SM BR BKN003
     FM202000 35012KT P6SM SKC=

USA.gov is the U.S. government's official web portal to all federal, state and local government web resources and services.